Time;durP1;ratioP1;P1;durP2;ratioP2;P2;SDS_P1;SDS_P2;PMS_P1;PMS_P2;Temp;Humidity;BMP_temperature;BMP_pressure;BME280_temperature;BME280_humidity;BME280_pressure;Samples;Min_cycle;Max_cycle;Signal;HPM_P1;HPM_P2
2023/01/22 00:02:03;;;;;;;;;;;;;;;-3.20;100.00;97163.38;5066351;28;19925;-67
2023/01/22 00:04:28;;;;;;;;;;;;;;;-3.21;100.00;97165.22;5072492;28;19987;-70
2023/01/22 00:06:54;;;;;;;;;;;;;;;-3.05;100.00;97163.38;5074790;28;19970;-69
2023/01/22 00:09:21;;;;;;;;;;;;;;;-2.96;100.00;97155.59;5069447;28;19943;-70
2023/01/22 00:11:47;;;;;;;;;;;;;;;-2.91;100.00;97160.97;5074972;28;20251;-70
2023/01/22 00:14:12;;;;;;;;;;;;;;;-2.82;100.00;97159.34;5069352;28;19916;-70
2023/01/22 00:16:40;;;;;;;;;;;;;;;-2.78;100.00;97157.72;5052680;28;20295;-69
2023/01/22 00:19:05;;;;;;;;;;;;;;;-2.79;100.00;97156.13;5058169;28;19917;-68
2023/01/22 00:21:30;;;;;;;;;;;;;;;-2.75;100.00;97157.19;5046702;28;19920;-69
2023/01/22 00:23:56;;;;;;;;;;;;;;;-2.71;100.00;97152.91;5051470;28;19921;-68
2023/01/22 00:26:22;;;;;;;;;;;;;;;-2.64;100.00;97151.84;5054815;28;19925;-68
2023/01/22 00:28:47;;;;;;;;;;;;;;;-2.69;100.00;97152.63;5051183;28;19924;-70
2023/01/22 00:31:13;;;;;;;;;;;;;;;-2.67;100.00;97157.72;5045726;28;19924;-71
2023/01/22 00:33:39;;;;;;;;;;;;;;;-2.59;100.00;97159.84;5048490;28;19917;-67
2023/01/22 00:36:05;;;;;;;;;;;;;;;-2.62;100.00;97155.06;5019741;28;19923;-70
2023/01/22 00:38:30;;;;;;;;;;;;;;;-2.66;100.00;97148.63;5043287;28;19968;-70
2023/01/22 00:40:58;;;;;;;;;;;;;;;-2.64;100.00;97149.94;5045179;28;19952;-70
2023/01/22 00:43:24;;;;;;;;;;;;;;;-2.65;100.00;97150.22;5058946;28;20004;-71
2023/01/22 00:45:49;;;;;;;;;;;;;;;-2.69;100.00;97148.06;5056220;28;19917;-70
2023/01/22 00:48:14;;;;;;;;;;;;;;;-2.77;100.00;97147.84;5044972;28;19924;-70
2023/01/22 00:50:40;;;;;;;;;;;;;;;-2.95;100.00;97147.28;5063606;28;19916;-69
2023/01/22 00:53:05;;;;;;;;;;;;;;;-2.92;100.00;97159.34;5049725;28;20404;-70
2023/01/22 00:55:30;;;;;;;;;;;;;;;-2.92;100.00;97151.31;5062795;28;19917;-69
2023/01/22 00:57:55;;;;;;;;;;;;;;;-2.97;100.00;97151.28;5059037;28;19928;-70
2023/01/22 01:00:21;;;;;;;;;;;;;;;-2.98;100.00;97155.06;5020078;28;19964;-69
2023/01/22 01:05:30;;;;;;;;;;;;;;;-3.30;100.00;97154.22;5062355;28;19927;-69
2023/01/22 01:07:56;;;;;;;;;;;;;;;-3.40;100.00;97156.06;5062956;28;19920;-69
2023/01/22 01:10:21;;;;;;;;;;;;;;;-3.49;100.00;97153.13;5057398;28;20265;-67
2023/01/22 01:12:46;;;;;;;;;;;;;;;-3.56;100.00;97155.25;5062710;28;19970;-69
2023/01/22 01:15:12;;;;;;;;;;;;;;;-3.60;100.00;97155.00;5058378;28;19917;-70
2023/01/22 01:17:37;;;;;;;;;;;;;;;-3.57;100.00;97153.66;5062814;28;20350;-71
2023/01/22 01:20:02;;;;;;;;;;;;;;;-3.64;100.00;97148.53;5042638;28;19966;-67
2023/01/22 01:22:28;;;;;;;;;;;;;;;-3.60;100.00;97146.94;5059943;28;19940;-70
2023/01/22 01:24:53;;;;;;;;;;;;;;;-3.61;100.00;97145.34;5046416;28;20003;-70
2023/01/22 01:27:18;;;;;;;;;;;;;;;-3.60;100.00;97149.63;5037616;28;19936;-68
2023/01/22 01:29:43;;;;;;;;;;;;;;;-3.63;100.00;97147.47;5041335;28;20270;-70
2023/01/22 01:32:09;;;;;;;;;;;;;;;-3.61;100.00;97145.34;5037661;28;19936;-70
2023/01/22 01:34:34;;;;;;;;;;;;;;;-3.46;100.00;97149.91;5024582;28;19992;-70
2023/01/22 01:36:59;;;;;;;;;;;;;;;-3.41;100.00;97141.88;5024486;28;19936;-72
2023/01/22 01:39:24;;;;;;;;;;;;;;;-3.41;100.00;97146.44;5036849;28;19921;-69
2023/01/22 01:41:50;;;;;;;;;;;;;;;-3.27;100.00;97147.53;5042788;28;19920;-72
2023/01/22 01:44:20;;;;;;;;;;;;;;;-3.21;100.00;97143.00;5050163;28;20011;-69
2023/01/22 01:46:48;;;;;;;;;;;;;;;-3.30;100.00;97140.03;5044018;28;19921;-69
2023/01/22 01:49:33;;;;;;;;;;;;;;;-3.26;100.00;97141.09;5022610;28;19984;-69
2023/01/22 01:52:01;;;;;;;;;;;;;;;-3.29;100.00;97133.63;5049760;28;19921;-70
2023/01/22 01:54:27;;;;;;;;;;;;;;;-3.25;100.00;97137.34;5055844;28;19916;-70
2023/01/22 01:57:00;;;;;;;;;;;;;;;-3.39;100.00;97137.06;5059843;28;19917;-71
2023/01/22 01:59:26;;;;;;;;;;;;;;;-3.35;100.00;97138.16;5056140;28;19955;-70
2023/01/22 02:01:53;;;;;;;;;;;;;;;-3.30;100.00;97129.31;5062222;28;20361;-70
2023/01/22 02:04:19;;;;;;;;;;;;;;;-3.44;100.00;97130.91;5056360;28;19920;-70
2023/01/22 02:06:44;;;;;;;;;;;;;;;-3.51;100.00;97131.97;5062767;28;19940;-70
2023/01/22 02:09:10;;;;;;;;;;;;;;;-3.53;100.00;97133.28;5071076;28;19917;-71
2023/01/22 02:11:37;;;;;;;;;;;;;;;-3.58;100.00;97125.25;5061577;28;19923;-70
2023/01/22 02:14:05;;;;;;;;;;;;;;;-3.62;100.00;97126.84;5058133;28;19916;-71
2023/01/22 02:16:31;;;;;;;;;;;;;;;-3.41;100.00;97122.34;5066749;28;19917;-71
2023/01/22 02:18:56;;;;;;;;;;;;;;;-3.43;100.00;97127.16;5077143;28;19925;-70
2023/01/22 02:21:28;;;;;;;;;;;;;;;-3.55;100.00;97125.53;5071271;28;20347;-70
2023/01/22 02:23:53;;;;;;;;;;;;;;;-3.59;100.00;97119.09;5063608;28;19956;-70
2023/01/22 02:26:19;;;;;;;;;;;;;;;-3.53;100.00;97128.75;5035711;28;20400;-71
2023/01/22 02:28:44;;;;;;;;;;;;;;;-3.63;100.00;97125.25;5041515;28;19917;-70
2023/01/22 02:31:09;;;;;;;;;;;;;;;-3.61;100.00;97123.91;5018024;28;20032;-71
2023/01/22 02:33:34;;;;;;;;;;;;;;;-3.70;100.00;97122.81;5041336;28;19917;-70
2023/01/22 02:36:00;;;;;;;;;;;;;;;-3.68;100.00;97116.13;5041292;28;19920;-70
2023/01/22 02:38:25;;;;;;;;;;;;;;;-3.54;100.00;97116.44;5017719;28;19990;-69
2023/01/22 02:40:50;;;;;;;;;;;;;;;-3.61;100.00;97115.88;5041609;28;19917;-70
2023/01/22 02:43:16;;;;;;;;;;;;;;;-3.66;100.00;97116.66;5036121;28;19916;-70
2023/01/22 02:45:41;;;;;;;;;;;;;;;-3.67;100.00;97114.28;5041144;28;19916;-70
2023/01/22 02:48:07;;;;;;;;;;;;;;;-3.72;100.00;97117.72;5035853;28;20358;-70
2023/01/22 02:50:32;;;;;;;;;;;;;;;-3.69;100.00;97119.88;5041861;28;20028;-70
2023/01/22 02:52:57;;;;;;;;;;;;;;;-3.72;100.00;97119.63;5049806;28;19920;-71
2023/01/22 02:55:22;;;;;;;;;;;;;;;-3.71;100.00;97115.84;5056097;28;20755;-71
2023/01/22 02:57:48;;;;;;;;;;;;;;;-3.74;100.00;97116.41;5042933;28;19935;-70
2023/01/22 03:00:13;;;;;;;;;;;;;;;-3.76;100.00;97111.31;5055412;28;20331;-70
2023/01/22 03:02:39;;;;;;;;;;;;;;;-3.72;100.00;97111.59;5042925;28;20050;-69
2023/01/22 03:05:04;;;;;;;;;;;;;;;-3.72;100.00;97108.91;5055482;28;20381;-69
2023/01/22 03:07:40;;;;;;;;;;;;;;;-3.70;100.00;97109.44;5060732;28;20003;-70
2023/01/22 03:10:07;;;;;;;;;;;;;;;-3.71;100.00;97108.66;5055758;28;19928;-71
2023/01/22 03:23:28;;;;;;;;;;;;;;;-3.58;100.00;97095.78;5057195;28;19916;-70
2023/01/22 03:25:55;;;;;;;;;;;;;;;-3.58;100.00;97096.63;5048613;28;19922;-69
2023/01/22 03:28:20;;;;;;;;;;;;;;;-3.57;100.00;97095.53;5037259;28;19920;-70
2023/01/22 03:30:45;;;;;;;;;;;;;;;-3.57;100.00;97102.75;5060432;28;20281;-71
2023/01/22 03:33:10;;;;;;;;;;;;;;;-3.57;100.00;97097.41;5055552;28;20015;-69
2023/01/22 03:35:36;;;;;;;;;;;;;;;-3.56;100.00;97096.34;5060311;28;19916;-69
2023/01/22 03:38:01;;;;;;;;;;;;;;;-3.55;100.00;97097.94;5059593;28;19921;-71
2023/01/22 03:40:26;;;;;;;;;;;;;;;-3.56;100.00;97104.38;5055928;28;19916;-70
2023/01/22 03:42:52;;;;;;;;;;;;;;;-3.55;100.00;97100.63;5060924;28;19916;-70
2023/01/22 03:45:17;;;;;;;;;;;;;;;-3.56;100.00;97097.16;5055263;28;19917;-70
2023/01/22 03:47:42;;;;;;;;;;;;;;;-3.56;100.00;97096.34;5059198;28;20370;-70
2023/01/22 03:50:08;;;;;;;;;;;;;;;-3.56;100.00;97099.03;5048625;28;19923;-71
2023/01/22 03:52:34;;;;;;;;;;;;;;;-3.59;100.00;97105.72;5032000;28;19916;-70
2023/01/22 03:54:59;;;;;;;;;;;;;;;-3.59;100.00;97102.22;5060517;28;19924;-70
2023/01/22 03:57:24;;;;;;;;;;;;;;;-3.58;100.00;97104.66;5054518;28;19964;-70
2023/01/22 03:59:49;;;;;;;;;;;;;;;-3.56;100.00;97099.03;5060255;28;19917;-71
2023/01/22 04:02:15;;;;;;;;;;;;;;;-3.57;100.00;97108.91;5055895;28;20369;-70
2023/01/22 04:04:43;;;;;;;;;;;;;;;-3.55;100.00;97111.34;5042167;28;19975;-70
2023/01/22 04:07:08;;;;;;;;;;;;;;;-3.56;100.00;97110.53;5055007;28;19917;-70
2023/01/22 04:09:34;;;;;;;;;;;;;;;-3.56;100.00;97110.53;5059804;28;20011;-70
2023/01/22 04:11:59;;;;;;;;;;;;;;;-3.56;100.00;97110.53;5063192;28;19920;-70
2023/01/22 04:14:24;;;;;;;;;;;;;;;-3.53;100.00;97122.59;5040452;28;19920;-70
2023/01/22 04:16:50;;;;;;;;;;;;;;;-3.53;100.00;97120.72;5064290;28;20385;-70
2023/01/22 04:19:16;;;;;;;;;;;;;;;-3.51;100.00;97117.75;5058421;28;19923;-72
2023/01/22 04:21:42;;;;;;;;;;;;;;;-3.52;100.00;97122.31;5045813;28;19921;-71
2023/01/22 04:24:07;;;;;;;;;;;;;;;-3.49;100.00;97124.47;5057610;28;19917;-71
2023/01/22 04:26:33;;;;;;;;;;;;;;;-3.49;100.00;97129.84;5049482;28;20370;-71
2023/01/22 04:28:59;;;;;;;;;;;;;;;-3.50;100.00;97133.56;5042902;28;19966;-71
2023/01/22 04:31:24;;;;;;;;;;;;;;;-3.45;100.00;97135.47;5038748;28;20338;-71
2023/01/22 04:33:50;;;;;;;;;;;;;;;-3.46;100.00;97136.53;5043657;28;20597;-71
2023/01/22 04:36:16;;;;;;;;;;;;;;;-3.48;100.00;97133.31;5038464;28;19924;-70
2023/01/22 04:38:42;;;;;;;;;;;;;;;-3.47;100.00;97143.75;5025327;28;19966;-70
2023/01/22 04:41:07;;;;;;;;;;;;;;;-3.47;100.00;97138.41;5038593;28;19921;-69
2023/01/22 04:43:32;;;;;;;;;;;;;;;-3.48;100.00;97131.44;5043363;28;19927;-71
2023/01/22 04:45:58;;;;;;;;;;;;;;;-3.48;100.00;97139.47;5043086;28;20019;-70
2023/01/22 04:48:23;;;;;;;;;;;;;;;-3.48;100.00;97139.47;5020596;28;19931;-71
2023/01/22 04:50:48;;;;;;;;;;;;;;;-3.46;100.00;97141.88;5043157;28;19921;-69
2023/01/22 04:53:14;;;;;;;;;;;;;;;-3.46;100.00;97142.69;5043126;28;19917;-72
2023/01/22 04:55:40;;;;;;;;;;;;;;;-3.40;100.00;97142.69;5043093;28;20374;-71
2023/01/22 04:58:06;;;;;;;;;;;;;;;-3.40;100.00;97142.69;5037869;28;19951;-71
2023/01/22 05:00:31;;;;;;;;;;;;;;;-3.39;100.00;97142.41;5055497;28;19921;-70
2023/01/22 05:02:57;;;;;;;;;;;;;;;-3.41;100.00;97146.44;5063993;28;20080;-70
2023/01/22 05:05:23;;;;;;;;;;;;;;;-3.42;100.00;97153.69;5038017;28;20555;-68
2023/01/22 05:07:49;;;;;;;;;;;;;;;-3.39;100.00;97144.31;5041840;28;20031;-69
2023/01/22 05:10:14;;;;;;;;;;;;;;;-3.38;100.00;97149.41;5037974;28;19921;-70
2023/01/22 05:12:39;;;;;;;;;;;;;;;-3.35;100.00;97148.88;5043237;28;20374;-69
2023/01/22 05:15:05;;;;;;;;;;;;;;;-3.32;100.00;97150.22;5038158;28;19921;-70
2023/01/22 05:17:30;;;;;;;;;;;;;;;-3.40;100.00;97148.88;5050809;28;19927;-70
2023/01/22 05:19:55;;;;;;;;;;;;;;;-3.40;100.00;97153.41;5049438;28;19960;-69
2023/01/22 05:22:21;;;;;;;;;;;;;;;-3.31;100.00;97149.94;5019129;28;19988;-70
2023/01/22 05:24:46;;;;;;;;;;;;;;;-3.17;100.00;97154.78;5047929;28;19904;-70
2023/01/22 05:27:11;;;;;;;;;;;;;;;-3.16;100.00;97151.84;5077692;28;19959;-70
2023/01/22 05:29:37;;;;;;;;;;;;;;;-3.09;100.00;97155.06;5049412;28;19951;-70
2023/01/22 05:32:02;;;;;;;;;;;;;;;-3.03;100.00;97153.19;5061811;28;19917;-71
2023/01/22 05:34:27;;;;;;;;;;;;;;;-2.80;100.00;97157.19;5059186;28;20409;-70
2023/01/22 05:36:53;;;;;;;;;;;;;;;-2.67;100.00;97161.22;5061545;28;19939;-71
2023/01/22 05:39:18;;;;;;;;;;;;;;;-2.77;100.00;97158.56;5056938;28;19977;-70
2023/01/22 05:41:43;;;;;;;;;;;;;;;-2.86;100.00;97166.34;5062273;28;19916;-70
2023/01/22 05:44:10;;;;;;;;;;;;;;;-2.94;100.00;97164.97;5067029;28;19959;-71
2023/01/22 05:46:35;;;;;;;;;;;;;;;-2.74;100.00;97172.22;5080692;28;19916;-71
2023/01/22 05:49:01;;;;;;;;;;;;;;;-2.98;100.00;97173.81;5075790;28;19951;-71
2023/01/22 05:51:26;;;;;;;;;;;;;;;-2.90;100.00;97176.78;5049352;28;20007;-71
2023/01/22 05:53:51;;;;;;;;;;;;;;;-2.90;100.00;97175.97;5028853;28;19920;-70
2023/01/22 05:56:17;;;;;;;;;;;;;;;-2.90;100.00;97175.97;5021162;28;20015;-71
2023/01/22 05:58:42;;;;;;;;;;;;;;;-2.86;100.00;97179.72;5049765;28;19928;-71
2023/01/22 06:01:07;;;;;;;;;;;;;;;-2.91;100.00;97185.09;5021043;28;20374;-70
2023/01/22 06:03:33;;;;;;;;;;;;;;;-2.95;100.00;97184.03;5041883;28;19928;-70
2023/01/22 06:05:59;;;;;;;;;;;;;;;-2.76;100.00;97187.75;5041922;28;19971;-70
2023/01/22 06:08:24;;;;;;;;;;;;;;;-2.96;100.00;97183.19;5036745;28;20361;-70
2023/01/22 06:10:49;;;;;;;;;;;;;;;-2.75;100.00;97192.06;5007544;28;20540;-69
2023/01/22 06:13:15;;;;;;;;;;;;;;;-2.77;100.00;97194.19;5036587;28;19917;-71
2023/01/22 06:15:42;;;;;;;;;;;;;;;-2.69;100.00;97198.22;5041750;28;19959;-71
2023/01/22 06:18:08;;;;;;;;;;;;;;;-2.64;100.00;97205.47;5036424;28;19920;-69
2023/01/22 06:20:33;;;;;;;;;;;;;;;-2.74;100.00;97207.09;5041422;28;20298;-72
2023/01/22 06:22:58;;;;;;;;;;;;;;;-2.73;100.00;97211.34;5023981;28;19925;-71
2023/01/22 06:25:24;;;;;;;;;;;;;;;-2.89;100.00;97204.38;5043724;28;19925;-71
2023/01/22 06:27:49;;;;;;;;;;;;;;;-3.11;100.00;97208.13;5039736;28;19917;-71
2023/01/22 06:30:14;;;;;;;;;;;;;;;-3.19;100.00;97210.50;5036819;28;19924;-71
2023/01/22 06:32:40;;;;;;;;;;;;;;;-3.14;100.00;97213.19;5023259;28;19923;-71
2023/01/22 06:35:05;;;;;;;;;;;;;;;-3.20;100.00;97208.91;5035926;28;19962;-72
2023/01/22 06:37:30;;;;;;;;;;;;;;;-3.32;100.00;97209.94;5041304;28;20496;-71
2023/01/22 06:39:56;;;;;;;;;;;;;;;-3.33;100.00;97208.34;5040421;28;19916;-71
2023/01/22 06:42:21;;;;;;;;;;;;;;;-3.26;100.00;97208.06;5051481;28;20724;-71
2023/01/22 06:44:46;;;;;;;;;;;;;;;-3.22;100.00;97206.50;5040124;28;19917;-71
2023/01/22 06:47:12;;;;;;;;;;;;;;;-3.26;100.00;97205.41;5035517;28;20286;-71
2023/01/22 06:49:37;;;;;;;;;;;;;;;-3.36;100.00;97206.19;5041064;28;19916;-70
2023/01/22 06:52:04;;;;;;;;;;;;;;;-3.35;100.00;97212.34;5021256;28;19987;-70
2023/01/22 06:54:31;;;;;;;;;;;;;;;-3.39;100.00;97214.75;5041290;28;19921;-72
2023/01/22 06:56:56;;;;;;;;;;;;;;;-3.42;100.00;97220.66;5041195;28;19916;-71
2023/01/22 06:59:22;;;;;;;;;;;;;;;-3.47;100.00;97216.06;5050447;28;20022;-71
2023/01/22 07:01:47;;;;;;;;;;;;;;;-3.47;100.00;97218.75;5060944;28;19916;-69
2023/01/22 07:04:12;;;;;;;;;;;;;;;-3.47;100.00;97215.28;5070254;28;19917;-70
2023/01/22 07:06:37;;;;;;;;;;;;;;;-3.48;100.00;97221.69;5042401;28;19963;-70
2023/01/22 07:09:03;;;;;;;;;;;;;;;-3.46;100.00;97222.22;5055711;28;19917;-69
2023/01/22 07:11:28;;;;;;;;;;;;;;;-3.44;100.00;97222.75;5027511;28;19921;-71
2023/01/22 07:13:53;;;;;;;;;;;;;;;-3.44;100.00;97221.97;5040964;28;19917;-71
2023/01/22 07:16:18;;;;;;;;;;;;;;;-3.42;100.00;97230.53;5036046;28;19979;-70
2023/01/22 07:18:44;;;;;;;;;;;;;;;-3.42;100.00;97223.31;5041909;28;19936;-71
2023/01/22 07:21:10;;;;;;;;;;;;;;;-3.33;100.00;97221.75;5018524;28;19974;-71
2023/01/22 07:23:35;;;;;;;;;;;;;;;-3.23;100.00;97225.50;5040674;28;19971;-71
2023/01/22 07:26:01;;;;;;;;;;;;;;;-3.22;100.00;97222.56;5049309;28;20338;-68
2023/01/22 07:28:26;;;;;;;;;;;;;;;-3.18;100.00;97223.63;5055306;28;19920;-71
2023/01/22 07:30:51;;;;;;;;;;;;;;;-2.97;100.00;97226.34;5048012;28;19928;-71
2023/01/22 07:33:17;;;;;;;;;;;;;;;-2.87;100.00;97223.69;5018336;28;19924;-69
2023/01/22 07:35:42;;;;;;;;;;;;;;;-2.94;100.00;97223.13;5040347;28;20262;-71
2023/01/22 07:38:08;;;;;;;;;;;;;;;-2.73;100.00;97222.09;5017660;28;19929;-69
2023/01/22 07:40:33;;;;;;;;;;;;;;;-2.40;100.00;97222.59;5040945;28;19924;-70
2023/01/22 07:42:59;;;;;;;;;;;;;;;-2.25;100.00;97227.16;5040737;28;19929;-70
2023/01/22 07:45:24;;;;;;;;;;;;;;;-2.21;100.00;97236.28;5018383;28;19917;-70
2023/01/22 07:47:54;;;;;;;;;;;;;;;-2.00;100.00;97225.50;5044422;28;19921;-70
2023/01/22 07:50:22;;;;;;;;;;;;;;;-2.07;100.00;97235.69;5039462;28;19955;-70
2023/01/22 07:52:48;;;;;;;;;;;;;;;-1.60;100.00;97234.50;5051857;28;20003;-70
2023/01/22 07:55:13;;;;;;;;;;;;;;;-1.47;100.00;97233.13;5039976;28;19923;-70
2023/01/22 07:57:38;;;;;;;;;;;;;;;-1.74;100.00;97243.13;5063974;28;19924;-70
2023/01/22 08:00:04;;;;;;;;;;;;;;;-1.77;100.00;97232.94;5058965;28;19923;-70
2023/01/22 08:02:29;;;;;;;;;;;;;;;-1.65;100.00;97243.38;5060685;28;20008;-70
2023/01/22 08:04:54;;;;;;;;;;;;;;;-1.59;100.00;97241.47;5047507;28;19932;-70
2023/01/22 08:07:22;;;;;;;;;;;;;;;-1.38;100.00;97240.31;5050776;28;19968;-70
2023/01/22 08:09:47;;;;;;;;;;;;;;;-0.88;100.00;97247.56;5043661;28;20365;-70
2023/01/22 08:12:12;;;;;;;;;;;;;;;-1.11;100.00;97243.69;5056240;28;19999;-70
2023/01/22 08:14:38;;;;;;;;;;;;;;;-1.44;100.00;97245.97;5064094;28;19917;-70
2023/01/22 08:17:03;;;;;;;;;;;;;;;-1.36;100.00;97246.22;5074129;28;19968;-70
2023/01/22 08:19:29;;;;;;;;;;;;;;;-1.47;100.00;97238.50;5083227;28;20034;-71
2023/01/22 08:21:54;;;;;;;;;;;;;;;-1.28;100.00;97244.03;5084730;28;19921;-70
2023/01/22 08:24:20;;;;;;;;;;;;;;;-1.09;100.00;97245.00;5067711;28;20018;-70
2023/01/22 08:26:45;;;;;;;;;;;;;;;-0.99;100.00;97257.56;5064606;28;20007;-70
2023/01/22 08:29:10;;;;;;;;;;;;;;;-0.82;100.00;97244.56;5056566;28;19916;-70
2023/01/22 08:31:35;;;;;;;;;;;;;;;-1.28;100.00;97249.41;5063722;28;19924;-70
2023/01/22 08:34:01;;;;;;;;;;;;;;;-0.99;100.00;97246.81;5063778;28;19932;-70
2023/01/22 08:36:26;;;;;;;;;;;;;;;-1.31;100.00;97253.47;5059054;28;20372;-70
2023/01/22 08:38:52;;;;;;;;;;;;;;;-1.13;100.00;97257.41;5062897;28;19959;-69
2023/01/22 08:41:17;;;;;;;;;;;;;;;-1.17;100.00;97259.84;5059676;28;19920;-71
2023/01/22 08:43:42;;;;;;;;;;;;;;;-0.75;100.00;97256.91;5057468;28;19917;-71
2023/01/22 08:46:07;;;;;;;;;;;;;;;-0.28;100.00;97255.47;5078456;28;19923;-70
2023/01/22 08:48:33;;;;;;;;;;;;;;;-1.10;100.00;97262.22;5075050;28;19970;-71
2023/01/22 08:50:59;;;;;;;;;;;;;;;-1.51;100.00;97262.41;5059371;28;19917;-68
2023/01/22 08:53:24;;;;;;;;;;;;;;;-1.03;100.00;97260.00;5042381;28;20342;-70
2023/01/22 08:55:49;;;;;;;;;;;;;;;-1.30;100.00;97263.13;5049125;28;20298;-70
2023/01/22 08:58:15;;;;;;;;;;;;;;;-1.21;100.00;97269.50;5038274;28;19968;-71
2023/01/22 09:00:40;;;;;;;;;;;;;;;-1.17;100.00;97272.47;5044730;28;19917;-71
2023/01/22 09:03:06;;;;;;;;;;;;;;;-1.37;100.00;97265.28;5042046;28;19929;-71
2023/01/22 09:05:31;;;;;;;;;;;;;;;-1.41;100.00;97269.63;5048050;28;19925;-69
2023/01/22 09:07:56;;;;;;;;;;;;;;;-1.62;100.00;97266.19;5050375;28;19979;-69
2023/01/22 09:10:21;;;;;;;;;;;;;;;-1.75;100.00;97271.09;5045208;28;19925;-72
2023/01/22 09:12:47;;;;;;;;;;;;;;;-1.64;100.00;97269.19;5029552;28;19924;-70
2023/01/22 09:15:12;;;;;;;;;;;;;;;-1.62;100.00;97275.06;5019935;28;19975;-70
2023/01/22 09:17:39;;;;;;;;;;;;;;;-1.65;100.00;97267.56;5025195;28;19921;-71
2023/01/22 09:20:04;;;;;;;;;;;;;;;-1.55;100.00;97275.59;5039777;28;20007;-71
2023/01/22 09:22:29;;;;;;;;;;;;;;;-0.93;100.00;97272.63;5043987;28;19959;-71
2023/01/22 09:24:55;;;;;;;;;;;;;;;-1.66;100.00;97278.56;5052367;28;20289;-71
2023/01/22 09:27:20;;;;;;;;;;;;;;;-1.26;100.00;97282.19;5057534;28;19970;-71
2023/01/22 09:29:46;;;;;;;;;;;;;;;-1.91;100.00;97285.59;5042086;28;19924;-72
2023/01/22 09:32:11;;;;;;;;;;;;;;;-1.76;100.00;97284.78;5020556;28;19921;-71
2023/01/22 09:34:36;;;;;;;;;;;;;;;-1.52;100.00;97289.56;5025662;28;19923;-71
2023/01/22 09:37:06;;;;;;;;;;;;;;;-1.60;100.00;97290.94;5042117;28;20097;-71
2023/01/22 09:39:31;;;;;;;;;;;;;;;-1.46;100.00;97285.75;5043626;28;20266;-71
2023/01/22 09:41:59;;;;;;;;;;;;;;;-1.31;100.00;97284.91;5043510;28;19916;-71
2023/01/22 09:44:34;;;;;;;;;;;;;;;-1.11;100.00;97297.47;5039157;28;19921;-71
2023/01/22 09:47:11;;;;;;;;;;;;;;;-1.77;100.00;97299.28;5025535;28;20385;-71
2023/01/22 09:49:42;;;;;;;;;;;;;;;-1.64;100.00;97298.72;5009339;28;19917;-71
2023/01/22 09:52:08;;;;;;;;;;;;;;;-2.15;100.00;97301.47;5045314;28;19916;-71
2023/01/22 09:54:33;;;;;;;;;;;;;;;-2.10;100.00;97295.31;5049849;28;19967;-72
2023/01/22 09:57:01;;;;;;;;;;;;;;;-1.95;100.00;97303.34;5008483;28;20017;-71
2023/01/22 09:59:31;;;;;;;;;;;;;;;-2.24;100.00;97300.41;5037964;28;19917;-71
2023/01/22 10:01:58;;;;;;;;;;;;;;;-2.17;100.00;97301.75;5036192;28;19917;-71
2023/01/22 10:04:40;;;;;;;;;;;;;;;-2.01;100.00;97307.13;5031783;28;19925;-70
2023/01/22 10:07:09;;;;;;;;;;;;;;;-2.22;100.00;97317.06;5045664;28;19917;-70
2023/01/22 10:09:38;;;;;;;;;;;;;;;-1.83;100.00;97311.13;5023289;28;19995;-72
2023/01/22 10:12:13;;;;;;;;;;;;;;;-1.97;100.00;97324.28;5037591;28;20386;-72
2023/01/22 10:14:40;;;;;;;;;;;;;;;-2.12;100.00;97319.75;5042596;28;19917;-72
2023/01/22 10:17:15;;;;;;;;;;;;;;;-1.95;100.00;97322.94;5019077;28;19928;-70
2023/01/22 10:19:42;;;;;;;;;;;;;;;-2.20;100.00;97321.06;5007962;28;19920;-71
2023/01/22 10:22:15;;;;;;;;;;;;;;;-2.16;100.00;97326.69;5015630;28;19917;-71
2023/01/22 10:24:40;;;;;;;;;;;;;;;-2.08;100.00;97320.00;5042348;28;20271;-71
2023/01/22 10:27:10;;;;;;;;;;;;;;;-2.27;100.00;97325.88;5054429;28;19923;-70
2023/01/22 10:29:37;;;;;;;;;;;;;;;-1.94;100.00;97324.53;5041971;28;19920;-71
2023/01/22 10:32:21;;;;;;;;;;;;;;;-1.85;100.00;97314.06;5039190;28;20400;-71
2023/01/22 10:35:04;;;;;;;;;;;;;;;-1.98;100.00;97319.97;5041334;28;19963;-71
2023/01/22 10:37:29;;;;;;;;;;;;;;;-2.03;100.00;97320.00;5023904;28;19924;-72
2023/01/22 10:39:56;;;;;;;;;;;;;;;-1.61;100.00;97322.34;5042259;28;20329;-72
2023/01/22 10:42:22;;;;;;;;;;;;;;;-1.98;100.00;97317.28;5016861;28;19967;-70
2023/01/22 10:44:48;;;;;;;;;;;;;;;-1.78;100.00;97321.84;5024175;28;20007;-71
2023/01/22 10:47:21;;;;;;;;;;;;;;;-1.29;100.00;97323.88;5028639;28;19963;-72
2023/01/22 10:50:00;;;;;;;;;;;;;;;-2.07;100.00;97321.59;5029170;28;19916;-71
2023/01/22 10:52:31;;;;;;;;;;;;;;;-1.83;100.00;97322.66;5056368;28;19966;-71
2023/01/22 10:54:57;;;;;;;;;;;;;;;-1.38;100.00;97325.50;5025622;28;19992;-71
2023/01/22 10:57:32;;;;;;;;;;;;;;;-1.41;100.00;97323.34;5044316;28;19928;-69
2023/01/22 11:00:06;;;;;;;;;;;;;;;-1.20;98.98;97326.78;5034339;28;19931;-71
2023/01/22 11:02:33;;;;;;;;;;;;;;;-1.58;100.00;97327.16;5006670;28;19921;-71
2023/01/22 11:05:17;;;;;;;;;;;;;;;-1.71;100.00;97325.06;5040666;28;19920;-70
2023/01/22 11:07:43;;;;;;;;;;;;;;;-1.35;100.00;97324.97;5039602;28;19920;-68
2023/01/22 11:10:16;;;;;;;;;;;;;;;-0.89;99.98;97324.75;5018148;28;19924;-71
2023/01/22 11:12:48;;;;;;;;;;;;;;;-1.23;96.57;97327.31;5040598;28;19917;-70
2023/01/22 11:15:22;;;;;;;;;;;;;;;-0.25;96.15;97327.59;5036442;28;19920;-71
2023/01/22 11:17:53;;;;;;;;;;;;;;;0.35;94.96;97317.34;5040950;28;20066;-71
2023/01/22 11:20:36;;;;;;;;;;;;;;;-0.67;92.21;97320.88;5038282;28;20011;-71
2023/01/22 11:23:14;;;;;;;;;;;;;;;-0.25;91.46;97317.63;5047043;28;19927;-70
2023/01/22 11:25:58;;;;;;;;;;;;;;;-0.45;90.81;97320.44;5046967;28;19927;-69
2023/01/22 11:28:40;;;;;;;;;;;;;;;-0.83;92.37;97320.16;5039889;28;20828;-71
2023/01/22 11:31:15;;;;;;;;;;;;;;;-0.28;91.67;97322.78;5023127;28;19917;-69
2023/01/22 11:33:40;;;;;;;;;;;;;;;-0.91;93.93;97316.16;5045395;28;20392;-69
2023/01/22 11:36:12;;;;;;;;;;;;;;;-0.41;92.51;97321.53;5007360;28;19917;-69
2023/01/22 11:38:45;;;;;;;;;;;;;;;-0.78;93.85;97312.06;5056263;28;19952;-70
2023/01/22 11:41:26;;;;;;;;;;;;;;;-0.29;92.44;97316.59;5049114;28;19917;-69
2023/01/22 11:43:57;;;;;;;;;;;;;;;-0.52;89.95;97307.34;5026085;28;19917;-70
2023/01/22 11:46:41;;;;;;;;;;;;;;;-1.43;94.68;97320.16;5023414;28;20602;-71
2023/01/22 11:49:21;;;;;;;;;;;;;;;-0.97;92.85;97319.97;5039352;28;19915;-71
2023/01/22 11:51:52;;;;;;;;;;;;;;;-1.48;96.01;97314.78;5063144;28;19920;-70
2023/01/22 11:54:17;;;;;;;;;;;;;;;-1.57;95.36;97318.06;5057096;28;19943;-70
2023/01/22 11:56:46;;;;;;;;;;;;;;;-1.27;96.01;97318.22;5044402;28;19916;-69
2023/01/22 11:59:20;;;;;;;;;;;;;;;-1.37;93.86;97313.66;5039690;28;19952;-68
2023/01/22 12:01:55;;;;;;;;;;;;;;;-1.29;95.72;97315.81;5044061;28;19943;-68
2023/01/22 12:04:33;;;;;;;;;;;;;;;-1.39;95.32;97313.97;5038910;28;19978;-68
2023/01/22 12:07:02;;;;;;;;;;;;;;;-1.38;94.80;97315.56;5043830;28;20196;-68
2023/01/22 12:09:30;;;;;;;;;;;;;;;-1.52;94.53;97309.16;5040420;28;19924;-67
2023/01/22 12:12:01;;;;;;;;;;;;;;;-1.09;94.87;97316.81;5025947;28;20027;-68
2023/01/22 12:14:46;;;;;;;;;;;;;;;-1.16;94.87;97309.81;5004176;28;20399;-69
2023/01/22 12:17:23;;;;;;;;;;;;;;;-0.91;92.10;97305.41;5036512;28;19925;-66
2023/01/22 12:19:55;;;;;;;;;;;;;;;-0.90;92.13;97315.09;5025828;28;19917;-67
2023/01/22 12:22:25;;;;;;;;;;;;;;;-1.04;91.54;97308.72;5020021;28;19924;-68
2023/01/22 12:24:56;;;;;;;;;;;;;;;-0.74;90.66;97306.94;5043799;28;20024;-67
2023/01/22 12:27:34;;;;;;;;;;;;;;;-1.12;92.65;97311.97;5037858;28;20652;-69
2023/01/22 12:29:59;;;;;;;;;;;;;;;-1.03;92.79;97316.47;5044103;28;20037;-67
2023/01/22 12:32:27;;;;;;;;;;;;;;;-0.85;90.11;97320.41;5017442;28;19917;-67
2023/01/22 12:34:53;;;;;;;;;;;;;;;-0.72;90.32;97320.91;5043755;28;20504;-67
2023/01/22 12:37:20;;;;;;;;;;;;;;;-1.01;90.02;97317.03;5036420;28;19921;-67
2023/01/22 12:40:03;;;;;;;;;;;;;;;-0.73;89.92;97317.41;5043575;28;20051;-69
2023/01/22 12:42:40;;;;;;;;;;;;;;;-0.99;90.31;97320.25;5037719;28;19921;-67
2023/01/22 12:45:25;;;;;;;;;;;;;;;-0.79;91.06;97313.94;5038046;28;19947;-68
2023/01/22 12:48:01;;;;;;;;;;;;;;;-1.19;90.60;97313.06;5043584;28;19928;-68
2023/01/22 12:50:26;;;;;;;;;;;;;;;-0.99;92.18;97320.25;5038019;28;19989;-68
2023/01/22 12:53:12;;;;;;;;;;;;;;;-0.66;87.84;97314.41;5033250;28;19920;-67